sensor_id;sensor_type;location;lat;lon;timestamp;temperature;humidity
7720;DHT22;3902;49.474;8.616;2023-12-14T00:02:15;9.60;99.90
7720;DHT22;3902;49.474;8.616;2023-12-14T00:04:41;9.60;99.90
7720;DHT22;3902;49.474;8.616;2023-12-14T00:07:06;9.60;99.90
7720;DHT22;3902;49.474;8.616;2023-12-14T00:09:32;9.60;99.90
7720;DHT22;3902;49.474;8.616;2023-12-14T00:11:57;9.60;99.90
7720;DHT22;3902;49.474;8.616;2023-12-14T00:14:22;9.60;99.90
7720;DHT22;3902;49.474;8.616;2023-12-14T00:16:48;9.50;99.90
7720;DHT22;3902;49.474;8.616;2023-12-14T00:19:14;9.50;99.90
7720;DHT22;3902;49.474;8.616;2023-12-14T00:21:40;9.50;99.90
7720;DHT22;3902;49.474;8.616;2023-12-14T00:24:08;9.50;99.90
7720;DHT22;3902;49.474;8.616;2023-12-14T00:26:33;9.50;99.90
7720;DHT22;3902;49.474;8.616;2023-12-14T00:29:00;9.50;99.90
7720;DHT22;3902;49.474;8.616;2023-12-14T00:31:26;9.60;99.90
7720;DHT22;3902;49.474;8.616;2023-12-14T00:33:52;9.60;99.90
7720;DHT22;3902;49.474;8.616;2023-12-14T00:36:18;9.60;99.90
7720;DHT22;3902;49.474;8.616;2023-12-14T00:38:44;9.60;99.90
7720;DHT22;3902;49.474;8.616;2023-12-14T00:41:10;9.60;99.90
7720;DHT22;3902;49.474;8.616;2023-12-14T00:43:35;9.60;99.90
7720;DHT22;3902;49.474;8.616;2023-12-14T00:46:02;9.60;99.90
7720;DHT22;3902;49.474;8.616;2023-12-14T00:48:28;9.50;99.90
7720;DHT22;3902;49.474;8.616;2023-12-14T00:50:53;9.60;99.90
7720;DHT22;3902;49.474;8.616;2023-12-14T00:53:19;9.50;99.90
7720;DHT22;3902;49.474;8.616;2023-12-14T00:55:44;9.50;99.90
7720;DHT22;3902;49.474;8.616;2023-12-14T00:58:11;9.50;99.90
7720;DHT22;3902;49.474;8.616;2023-12-14T01:00:38;9.50;99.90
7720;DHT22;3902;49.474;8.616;2023-12-14T01:03:04;9.50;99.90
7720;DHT22;3902;49.474;8.616;2023-12-14T01:05:29;9.50;99.90
7720;DHT22;3902;49.474;8.616;2023-12-14T01:07:55;9.40;99.90
7720;DHT22;3902;49.474;8.616;2023-12-14T01:10:20;9.40;99.90
7720;DHT22;3902;49.474;8.616;2023-12-14T01:12:46;9.40;99.90
7720;DHT22;3902;49.474;8.616;2023-12-14T01:15:11;9.40;99.90
7720;DHT22;3902;49.474;8.616;2023-12-14T01:17:37;9.40;99.90
7720;DHT22;3902;49.474;8.616;2023-12-14T01:20:06;9.40;99.90
7720;DHT22;3902;49.474;8.616;2023-12-14T01:22:32;9.40;99.90
7720;DHT22;3902;49.474;8.616;2023-12-14T01:24:58;9.40;99.90
7720;DHT22;3902;49.474;8.616;2023-12-14T01:27:24;9.30;99.90
7720;DHT22;3902;49.474;8.616;2023-12-14T01:29:50;9.40;99.90
7720;DHT22;3902;49.474;8.616;2023-12-14T01:32:15;9.40;99.90
7720;DHT22;3902;49.474;8.616;2023-12-14T01:34:41;9.40;99.90
7720;DHT22;3902;49.474;8.616;2023-12-14T01:37:06;9.40;99.90
7720;DHT22;3902;49.474;8.616;2023-12-14T01:39:32;9.40;99.90
7720;DHT22;3902;49.474;8.616;2023-12-14T01:41:58;9.40;99.90
7720;DHT22;3902;49.474;8.616;2023-12-14T01:44:24;9.50;99.90
7720;DHT22;3902;49.474;8.616;2023-12-14T01:46:49;9.50;99.90
7720;DHT22;3902;49.474;8.616;2023-12-14T01:49:15;9.50;99.90
7720;DHT22;3902;49.474;8.616;2023-12-14T01:51:40;9.50;99.90
7720;DHT22;3902;49.474;8.616;2023-12-14T01:54:06;9.50;99.90
7720;DHT22;3902;49.474;8.616;2023-12-14T01:56:31;9.50;99.90
7720;DHT22;3902;49.474;8.616;2023-12-14T01:58:57;9.50;99.90
7720;DHT22;3902;49.474;8.616;2023-12-14T02:01:41;9.50;99.90
7720;DHT22;3902;49.474;8.616;2023-12-14T02:04:07;9.50;99.90
7720;DHT22;3902;49.474;8.616;2023-12-14T02:06:33;9.50;99.90
7720;DHT22;3902;49.474;8.616;2023-12-14T02:08:58;9.50;99.90
7720;DHT22;3902;49.474;8.616;2023-12-14T02:11:24;9.50;99.90
7720;DHT22;3902;49.474;8.616;2023-12-14T02:13:49;9.50;99.90
7720;DHT22;3902;49.474;8.616;2023-12-14T02:16:15;9.50;99.90
7720;DHT22;3902;49.474;8.616;2023-12-14T02:18:41;9.50;99.90
7720;DHT22;3902;49.474;8.616;2023-12-14T02:21:06;9.50;99.90
7720;DHT22;3902;49.474;8.616;2023-12-14T02:23:32;9.50;99.90
7720;DHT22;3902;49.474;8.616;2023-12-14T02:25:58;9.50;99.90
7720;DHT22;3902;49.474;8.616;2023-12-14T02:28:24;9.50;99.90
7720;DHT22;3902;49.474;8.616;2023-12-14T02:30:49;9.50;99.90
7720;DHT22;3902;49.474;8.616;2023-12-14T02:33:15;9.50;99.90
7720;DHT22;3902;49.474;8.616;2023-12-14T02:35:40;9.50;99.90
7720;DHT22;3902;49.474;8.616;2023-12-14T02:38:06;9.50;99.90
7720;DHT22;3902;49.474;8.616;2023-12-14T02:40:31;9.40;99.90
7720;DHT22;3902;49.474;8.616;2023-12-14T02:42:57;9.50;99.90
7720;DHT22;3902;49.474;8.616;2023-12-14T02:45:22;9.50;99.90
7720;DHT22;3902;49.474;8.616;2023-12-14T02:47:48;9.50;99.90
7720;DHT22;3902;49.474;8.616;2023-12-14T02:50:15;9.50;99.90
7720;DHT22;3902;49.474;8.616;2023-12-14T02:52:40;9.50;99.90
7720;DHT22;3902;49.474;8.616;2023-12-14T02:55:06;9.50;99.90
7720;DHT22;3902;49.474;8.616;2023-12-14T02:57:32;9.50;99.90
7720;DHT22;3902;49.474;8.616;2023-12-14T02:59:57;9.50;99.90
7720;DHT22;3902;49.474;8.616;2023-12-14T03:02:23;9.50;99.90
7720;DHT22;3902;49.474;8.616;2023-12-14T03:04:48;9.50;99.90
7720;DHT22;3902;49.474;8.616;2023-12-14T03:07:14;9.50;99.90
7720;DHT22;3902;49.474;8.616;2023-12-14T03:09:40;9.50;99.90
7720;DHT22;3902;49.474;8.616;2023-12-14T03:12:10;9.50;99.90
7720;DHT22;3902;49.474;8.616;2023-12-14T03:14:35;9.50;99.90
7720;DHT22;3902;49.474;8.616;2023-12-14T03:17:01;9.50;99.90
7720;DHT22;3902;49.474;8.616;2023-12-14T03:19:28;9.50;99.90
7720;DHT22;3902;49.474;8.616;2023-12-14T03:21:54;9.50;99.90
7720;DHT22;3902;49.474;8.616;2023-12-14T03:24:20;9.50;99.90
7720;DHT22;3902;49.474;8.616;2023-12-14T03:26:45;9.50;99.90
7720;DHT22;3902;49.474;8.616;2023-12-14T03:29:11;9.50;99.90
7720;DHT22;3902;49.474;8.616;2023-12-14T03:31:37;9.50;99.90
7720;DHT22;3902;49.474;8.616;2023-12-14T03:34:02;9.50;99.90
7720;DHT22;3902;49.474;8.616;2023-12-14T03:36:28;9.50;99.90
7720;DHT22;3902;49.474;8.616;2023-12-14T03:38:54;9.50;99.90
7720;DHT22;3902;49.474;8.616;2023-12-14T03:41:20;9.50;99.90
7720;DHT22;3902;49.474;8.616;2023-12-14T03:43:45;9.50;99.90
7720;DHT22;3902;49.474;8.616;2023-12-14T03:46:11;9.50;99.90
7720;DHT22;3902;49.474;8.616;2023-12-14T03:48:37;9.50;99.90
7720;DHT22;3902;49.474;8.616;2023-12-14T03:51:03;9.50;99.90
7720;DHT22;3902;49.474;8.616;2023-12-14T03:53:29;9.50;99.90
7720;DHT22;3902;49.474;8.616;2023-12-14T03:55:55;9.50;99.90
7720;DHT22;3902;49.474;8.616;2023-12-14T03:58:21;9.50;99.90
7720;DHT22;3902;49.474;8.616;2023-12-14T04:00:46;9.50;99.90
7720;DHT22;3902;49.474;8.616;2023-12-14T04:03:12;9.50;99.90
7720;DHT22;3902;49.474;8.616;2023-12-14T04:05:37;9.50;99.90
7720;DHT22;3902;49.474;8.616;2023-12-14T04:08:04;9.50;99.90
7720;DHT22;3902;49.474;8.616;2023-12-14T04:10:30;9.50;99.90
7720;DHT22;3902;49.474;8.616;2023-12-14T04:12:55;9.50;99.90
7720;DHT22;3902;49.474;8.616;2023-12-14T04:15:21;9.50;99.90
7720;DHT22;3902;49.474;8.616;2023-12-14T04:17:46;9.50;99.90
7720;DHT22;3902;49.474;8.616;2023-12-14T04:20:13;9.50;99.90
7720;DHT22;3902;49.474;8.616;2023-12-14T04:22:44;9.40;99.90
7720;DHT22;3902;49.474;8.616;2023-12-14T04:25:10;9.40;99.90
7720;DHT22;3902;49.474;8.616;2023-12-14T04:27:35;9.40;99.90
7720;DHT22;3902;49.474;8.616;2023-12-14T04:30:01;9.40;99.90
7720;DHT22;3902;49.474;8.616;2023-12-14T04:32:27;9.40;99.90
7720;DHT22;3902;49.474;8.616;2023-12-14T04:34:52;9.40;99.90
7720;DHT22;3902;49.474;8.616;2023-12-14T04:37:18;9.30;99.90
7720;DHT22;3902;49.474;8.616;2023-12-14T04:39:43;9.30;99.90
7720;DHT22;3902;49.474;8.616;2023-12-14T04:42:09;9.30;99.90
7720;DHT22;3902;49.474;8.616;2023-12-14T04:44:34;9.30;99.90
7720;DHT22;3902;49.474;8.616;2023-12-14T04:47:00;9.30;99.90
7720;DHT22;3902;49.474;8.616;2023-12-14T04:49:25;9.30;99.90
7720;DHT22;3902;49.474;8.616;2023-12-14T04:51:51;9.20;99.90
7720;DHT22;3902;49.474;8.616;2023-12-14T04:54:17;9.30;99.90
7720;DHT22;3902;49.474;8.616;2023-12-14T04:56:45;9.30;99.90
7720;DHT22;3902;49.474;8.616;2023-12-14T04:59:11;9.30;99.90
7720;DHT22;3902;49.474;8.616;2023-12-14T05:01:37;9.20;99.90
7720;DHT22;3902;49.474;8.616;2023-12-14T05:04:02;9.20;99.90
7720;DHT22;3902;49.474;8.616;2023-12-14T05:06:28;9.20;99.90
7720;DHT22;3902;49.474;8.616;2023-12-14T05:08:54;9.20;99.90
7720;DHT22;3902;49.474;8.616;2023-12-14T05:11:19;9.20;99.90
7720;DHT22;3902;49.474;8.616;2023-12-14T05:13:45;9.20;99.90
7720;DHT22;3902;49.474;8.616;2023-12-14T05:16:14;9.20;99.90
7720;DHT22;3902;49.474;8.616;2023-12-14T05:18:40;9.20;99.90
7720;DHT22;3902;49.474;8.616;2023-12-14T05:21:06;9.20;99.90
7720;DHT22;3902;49.474;8.616;2023-12-14T05:23:31;9.20;99.90
7720;DHT22;3902;49.474;8.616;2023-12-14T05:25:57;9.20;99.90
7720;DHT22;3902;49.474;8.616;2023-12-14T05:28:22;9.20;99.90
7720;DHT22;3902;49.474;8.616;2023-12-14T05:30:48;9.20;99.90
7720;DHT22;3902;49.474;8.616;2023-12-14T05:33:14;9.20;99.90
7720;DHT22;3902;49.474;8.616;2023-12-14T05:35:39;9.20;99.90
7720;DHT22;3902;49.474;8.616;2023-12-14T05:38:05;9.20;99.90
7720;DHT22;3902;49.474;8.616;2023-12-14T05:40:30;9.20;99.90
7720;DHT22;3902;49.474;8.616;2023-12-14T05:42:57;9.20;99.90
7720;DHT22;3902;49.474;8.616;2023-12-14T05:45:22;9.20;99.90
7720;DHT22;3902;49.474;8.616;2023-12-14T05:47:48;9.20;99.90
7720;DHT22;3902;49.474;8.616;2023-12-14T05:50:13;9.20;99.90
7720;DHT22;3902;49.474;8.616;2023-12-14T05:52:39;9.20;99.90
7720;DHT22;3902;49.474;8.616;2023-12-14T05:55:11;9.20;99.90
7720;DHT22;3902;49.474;8.616;2023-12-14T05:57:36;9.10;99.90
7720;DHT22;3902;49.474;8.616;2023-12-14T06:00:05;9.10;99.90
7720;DHT22;3902;49.474;8.616;2023-12-14T06:02:32;9.20;99.90
7720;DHT22;3902;49.474;8.616;2023-12-14T06:04:58;9.20;99.90
7720;DHT22;3902;49.474;8.616;2023-12-14T06:07:24;9.20;99.90
7720;DHT22;3902;49.474;8.616;2023-12-14T06:09:50;9.20;99.90
7720;DHT22;3902;49.474;8.616;2023-12-14T06:12:15;9.20;99.90
7720;DHT22;3902;49.474;8.616;2023-12-14T06:14:41;9.20;99.90
7720;DHT22;3902;49.474;8.616;2023-12-14T06:17:06;9.20;99.90
7720;DHT22;3902;49.474;8.616;2023-12-14T06:19:32;9.20;99.90
7720;DHT22;3902;49.474;8.616;2023-12-14T06:21:58;9.20;99.90
7720;DHT22;3902;49.474;8.616;2023-12-14T06:24:23;9.20;99.90
7720;DHT22;3902;49.474;8.616;2023-12-14T06:26:49;9.10;99.90
7720;DHT22;3902;49.474;8.616;2023-12-14T06:29:14;9.20;99.90
7720;DHT22;3902;49.474;8.616;2023-12-14T06:31:40;9.10;99.90
7720;DHT22;3902;49.474;8.616;2023-12-14T06:34:06;9.10;99.90
7720;DHT22;3902;49.474;8.616;2023-12-14T06:36:32;9.10;99.90
7720;DHT22;3902;49.474;8.616;2023-12-14T06:38:58;9.10;99.90
7720;DHT22;3902;49.474;8.616;2023-12-14T06:41:24;9.10;99.90
7720;DHT22;3902;49.474;8.616;2023-12-14T06:43:50;9.10;99.90
7720;DHT22;3902;49.474;8.616;2023-12-14T06:46:16;9.00;99.90
7720;DHT22;3902;49.474;8.616;2023-12-14T06:48:42;9.00;99.90
7720;DHT22;3902;49.474;8.616;2023-12-14T06:51:07;9.00;99.90
7720;DHT22;3902;49.474;8.616;2023-12-14T06:53:34;9.00;99.90
7720;DHT22;3902;49.474;8.616;2023-12-14T06:56:00;9.00;99.90
7720;DHT22;3902;49.474;8.616;2023-12-14T06:58:26;9.00;99.90
7720;DHT22;3902;49.474;8.616;2023-12-14T07:00:51;9.00;99.90
7720;DHT22;3902;49.474;8.616;2023-12-14T07:03:17;8.90;99.90
7720;DHT22;3902;49.474;8.616;2023-12-14T07:05:42;8.90;99.90
7720;DHT22;3902;49.474;8.616;2023-12-14T07:08:08;8.90;99.90
7720;DHT22;3902;49.474;8.616;2023-12-14T07:10:34;9.00;99.90
7720;DHT22;3902;49.474;8.616;2023-12-14T07:12:59;9.00;99.90
7720;DHT22;3902;49.474;8.616;2023-12-14T07:15:25;8.90;99.90
7720;DHT22;3902;49.474;8.616;2023-12-14T07:17:50;8.90;99.90
7720;DHT22;3902;49.474;8.616;2023-12-14T07:20:16;9.00;99.90
7720;DHT22;3902;49.474;8.616;2023-12-14T07:22:41;9.00;99.90
7720;DHT22;3902;49.474;8.616;2023-12-14T07:25:07;9.00;99.90
7720;DHT22;3902;49.474;8.616;2023-12-14T07:27:33;9.00;99.90
7720;DHT22;3902;49.474;8.616;2023-12-14T07:29:58;9.00;99.90
7720;DHT22;3902;49.474;8.616;2023-12-14T07:32:24;9.00;99.90
7720;DHT22;3902;49.474;8.616;2023-12-14T07:34:49;9.00;99.90
7720;DHT22;3902;49.474;8.616;2023-12-14T07:37:15;9.00;99.90
7720;DHT22;3902;49.474;8.616;2023-12-14T07:39:40;9.00;99.90
7720;DHT22;3902;49.474;8.616;2023-12-14T07:42:06;9.00;99.90
7720;DHT22;3902;49.474;8.616;2023-12-14T07:44:32;9.00;99.90
7720;DHT22;3902;49.474;8.616;2023-12-14T07:47:00;9.10;99.90
7720;DHT22;3902;49.474;8.616;2023-12-14T07:49:25;9.10;99.90
7720;DHT22;3902;49.474;8.616;2023-12-14T07:51:51;9.10;99.90
7720;DHT22;3902;49.474;8.616;2023-12-14T07:54:17;9.10;99.90
7720;DHT22;3902;49.474;8.616;2023-12-14T07:56:43;9.10;99.90
7720;DHT22;3902;49.474;8.616;2023-12-14T07:59:09;9.20;99.90
7720;DHT22;3902;49.474;8.616;2023-12-14T08:01:35;9.20;99.90
7720;DHT22;3902;49.474;8.616;2023-12-14T08:04:01;9.20;99.90
7720;DHT22;3902;49.474;8.616;2023-12-14T08:06:27;9.20;99.90
7720;DHT22;3902;49.474;8.616;2023-12-14T08:08:52;9.20;99.90
7720;DHT22;3902;49.474;8.616;2023-12-14T08:11:18;9.20;99.90
7720;DHT22;3902;49.474;8.616;2023-12-14T08:13:44;9.20;99.90
7720;DHT22;3902;49.474;8.616;2023-12-14T08:16:09;9.20;99.90
7720;DHT22;3902;49.474;8.616;2023-12-14T08:18:36;9.20;99.90
7720;DHT22;3902;49.474;8.616;2023-12-14T08:21:02;9.20;99.90
7720;DHT22;3902;49.474;8.616;2023-12-14T08:23:28;9.30;99.90
7720;DHT22;3902;49.474;8.616;2023-12-14T08:25:57;9.30;99.90
7720;DHT22;3902;49.474;8.616;2023-12-14T08:28:23;9.30;99.90
7720;DHT22;3902;49.474;8.616;2023-12-14T08:30:49;9.30;99.90
7720;DHT22;3902;49.474;8.616;2023-12-14T08:33:14;9.30;99.90
7720;DHT22;3902;49.474;8.616;2023-12-14T08:35:40;9.30;99.90
7720;DHT22;3902;49.474;8.616;2023-12-14T08:38:06;9.40;99.90
7720;DHT22;3902;49.474;8.616;2023-12-14T08:40:32;9.40;99.90
7720;DHT22;3902;49.474;8.616;2023-12-14T08:42:57;9.40;99.90
7720;DHT22;3902;49.474;8.616;2023-12-14T08:45:23;9.40;99.90
7720;DHT22;3902;49.474;8.616;2023-12-14T08:47:48;9.40;99.90
7720;DHT22;3902;49.474;8.616;2023-12-14T08:50:14;9.40;99.90
7720;DHT22;3902;49.474;8.616;2023-12-14T08:52:39;9.50;99.90
7720;DHT22;3902;49.474;8.616;2023-12-14T08:55:05;9.50;99.90
7720;DHT22;3902;49.474;8.616;2023-12-14T08:57:31;9.50;99.90
7720;DHT22;3902;49.474;8.616;2023-12-14T08:59:57;9.50;99.90
7720;DHT22;3902;49.474;8.616;2023-12-14T09:02:22;9.50;99.90
7720;DHT22;3902;49.474;8.616;2023-12-14T09:04:48;9.50;99.90
7720;DHT22;3902;49.474;8.616;2023-12-14T09:07:13;9.50;99.90
7720;DHT22;3902;49.474;8.616;2023-12-14T09:09:39;9.50;99.90
7720;DHT22;3902;49.474;8.616;2023-12-14T09:12:05;9.60;99.90
7720;DHT22;3902;49.474;8.616;2023-12-14T09:14:31;9.60;99.90
7720;DHT22;3902;49.474;8.616;2023-12-14T09:16:57;9.60;99.90
7720;DHT22;3902;49.474;8.616;2023-12-14T09:19:22;9.60;99.90
7720;DHT22;3902;49.474;8.616;2023-12-14T09:21:48;9.60;99.90
7720;DHT22;3902;49.474;8.616;2023-12-14T09:24:13;9.60;99.90
7720;DHT22;3902;49.474;8.616;2023-12-14T09:26:39;9.60;99.90
7720;DHT22;3902;49.474;8.616;2023-12-14T09:29:05;9.60;99.90
7720;DHT22;3902;49.474;8.616;2023-12-14T09:31:30;9.60;99.90
7720;DHT22;3902;49.474;8.616;2023-12-14T09:33:56;9.60;99.90
7720;DHT22;3902;49.474;8.616;2023-12-14T09:36:21;9.70;99.90
7720;DHT22;3902;49.474;8.616;2023-12-14T09:38:47;9.70;99.90
7720;DHT22;3902;49.474;8.616;2023-12-14T09:41:13;9.60;99.90
7720;DHT22;3902;49.474;8.616;2023-12-14T09:43:38;9.60;99.90
7720;DHT22;3902;49.474;8.616;2023-12-14T09:46:04;9.60;99.90
7720;DHT22;3902;49.474;8.616;2023-12-14T09:48:31;9.60;99.90
7720;DHT22;3902;49.474;8.616;2023-12-14T09:50:57;9.60;99.90
7720;DHT22;3902;49.474;8.616;2023-12-14T09:53:22;9.70;99.90
7720;DHT22;3902;49.474;8.616;2023-12-14T09:55:48;9.60;99.90
7720;DHT22;3902;49.474;8.616;2023-12-14T09:58:13;9.70;99.90
7720;DHT22;3902;49.474;8.616;2023-12-14T10:00:40;9.70;99.90
7720;DHT22;3902;49.474;8.616;2023-12-14T10:05:48;9.70;99.90
7720;DHT22;3902;49.474;8.616;2023-12-14T10:08:17;9.70;99.90
7720;DHT22;3902;49.474;8.616;2023-12-14T10:10:43;9.70;99.90
7720;DHT22;3902;49.474;8.616;2023-12-14T10:13:09;9.70;99.90
7720;DHT22;3902;49.474;8.616;2023-12-14T10:15:45;9.70;99.90
7720;DHT22;3902;49.474;8.616;2023-12-14T10:18:11;9.70;99.90
7720;DHT22;3902;49.474;8.616;2023-12-14T10:20:36;9.70;99.90
7720;DHT22;3902;49.474;8.616;2023-12-14T10:23:04;9.70;99.90
7720;DHT22;3902;49.474;8.616;2023-12-14T10:25:30;9.70;99.90
7720;DHT22;3902;49.474;8.616;2023-12-14T10:27:57;9.70;99.90
7720;DHT22;3902;49.474;8.616;2023-12-14T10:30:22;9.80;99.90
7720;DHT22;3902;49.474;8.616;2023-12-14T10:32:48;9.80;99.90
7720;DHT22;3902;49.474;8.616;2023-12-14T10:35:15;9.80;99.90
7720;DHT22;3902;49.474;8.616;2023-12-14T10:37:42;9.80;99.90
7720;DHT22;3902;49.474;8.616;2023-12-14T10:40:09;9.90;99.90
7720;DHT22;3902;49.474;8.616;2023-12-14T10:42:39;9.90;99.90
7720;DHT22;3902;49.474;8.616;2023-12-14T10:45:08;9.90;99.90
7720;DHT22;3902;49.474;8.616;2023-12-14T10:47:36;10.00;99.90
7720;DHT22;3902;49.474;8.616;2023-12-14T10:50:03;10.00;99.90
7720;DHT22;3902;49.474;8.616;2023-12-14T10:52:31;10.00;99.90
7720;DHT22;3902;49.474;8.616;2023-12-14T10:55:04;10.00;99.90
7720;DHT22;3902;49.474;8.616;2023-12-14T10:57:30;10.00;99.90
7720;DHT22;3902;49.474;8.616;2023-12-14T11:00:00;10.00;99.90
7720;DHT22;3902;49.474;8.616;2023-12-14T11:02:26;10.10;99.90
7720;DHT22;3902;49.474;8.616;2023-12-14T11:04:55;10.10;99.90
7720;DHT22;3902;49.474;8.616;2023-12-14T11:07:44;10.10;99.90
7720;DHT22;3902;49.474;8.616;2023-12-14T11:10:11;10.10;99.90
7720;DHT22;3902;49.474;8.616;2023-12-14T11:12:37;10.20;99.90
7720;DHT22;3902;49.474;8.616;2023-12-14T11:15:04;10.20;99.90
7720;DHT22;3902;49.474;8.616;2023-12-14T11:17:30;10.20;99.90
7720;DHT22;3902;49.474;8.616;2023-12-14T11:19:55;10.30;99.90
7720;DHT22;3902;49.474;8.616;2023-12-14T11:22:27;10.30;99.90
7720;DHT22;3902;49.474;8.616;2023-12-14T11:24:54;10.30;99.90
7720;DHT22;3902;49.474;8.616;2023-12-14T11:27:25;10.30;99.90
7720;DHT22;3902;49.474;8.616;2023-12-14T11:29:53;10.30;99.90
7720;DHT22;3902;49.474;8.616;2023-12-14T11:32:18;10.40;99.90
7720;DHT22;3902;49.474;8.616;2023-12-14T11:34:46;10.40;99.90
7720;DHT22;3902;49.474;8.616;2023-12-14T11:37:12;10.40;99.90
7720;DHT22;3902;49.474;8.616;2023-12-14T11:39:38;10.50;99.90
7720;DHT22;3902;49.474;8.616;2023-12-14T11:42:05;10.40;99.90
7720;DHT22;3902;49.474;8.616;2023-12-14T11:44:33;10.40;99.90
7720;DHT22;3902;49.474;8.616;2023-12-14T11:46:59;10.50;99.90
7720;DHT22;3902;49.474;8.616;2023-12-14T11:49:25;10.50;99.90
7720;DHT22;3902;49.474;8.616;2023-12-14T11:51:54;10.40;99.90
7720;DHT22;3902;49.474;8.616;2023-12-14T11:54:19;10.40;99.90
7720;DHT22;3902;49.474;8.616;2023-12-14T11:56:47;10.40;99.90
7720;DHT22;3902;49.474;8.616;2023-12-14T11:59:15;10.40;99.90
7720;DHT22;3902;49.474;8.616;2023-12-14T12:01:53;10.40;99.90
7720;DHT22;3902;49.474;8.616;2023-12-14T12:04:19;10.30;99.90
7720;DHT22;3902;49.474;8.616;2023-12-14T12:06:45;10.30;99.90
7720;DHT22;3902;49.474;8.616;2023-12-14T12:09:10;10.30;99.90
7720;DHT22;3902;49.474;8.616;2023-12-14T12:11:37;10.30;99.90
7720;DHT22;3902;49.474;8.616;2023-12-14T12:14:03;10.40;99.90
7720;DHT22;3902;49.474;8.616;2023-12-14T12:16:30;10.30;99.90
7720;DHT22;3902;49.474;8.616;2023-12-14T12:18:56;10.30;99.90
7720;DHT22;3902;49.474;8.616;2023-12-14T12:21:22;10.20;99.90
7720;DHT22;3902;49.474;8.616;2023-12-14T12:23:47;10.10;99.90
7720;DHT22;3902;49.474;8.616;2023-12-14T12:26:13;10.20;99.90
7720;DHT22;3902;49.474;8.616;2023-12-14T12:28:38;10.20;99.90
7720;DHT22;3902;49.474;8.616;2023-12-14T12:31:04;10.20;99.90
7720;DHT22;3902;49.474;8.616;2023-12-14T12:33:29;10.20;99.90
7720;DHT22;3902;49.474;8.616;2023-12-14T12:35:55;10.20;99.90
7720;DHT22;3902;49.474;8.616;2023-12-14T12:38:20;10.20;99.90
7720;DHT22;3902;49.474;8.616;2023-12-14T12:40:46;10.20;99.90
7720;DHT22;3902;49.474;8.616;2023-12-14T12:43:13;10.20;99.90
7720;DHT22;3902;49.474;8.616;2023-12-14T12:45:39;10.20;99.90
7720;DHT22;3902;49.474;8.616;2023-12-14T12:48:05;10.30;99.90
7720;DHT22;3902;49.474;8.616;2023-12-14T12:50:32;10.30;99.90
7720;DHT22;3902;49.474;8.616;2023-12-14T12:52:58;10.20;99.90
7720;DHT22;3902;49.474;8.616;2023-12-14T12:55:23;10.20;99.90
7720;DHT22;3902;49.474;8.616;2023-12-14T12:57:49;10.20;99.90
7720;DHT22;3902;49.474;8.616;2023-12-14T13:00:15;10.20;99.90
7720;DHT22;3902;49.474;8.616;2023-12-14T13:02:41;10.20;99.90
7720;DHT22;3902;49.474;8.616;2023-12-14T13:05:08;10.20;99.90
7720;DHT22;3902;49.474;8.616;2023-12-14T13:07:34;10.20;99.90
7720;DHT22;3902;49.474;8.616;2023-12-14T13:10:00;10.30;99.90
7720;DHT22;3902;49.474;8.616;2023-12-14T13:12:26;10.30;99.90
7720;DHT22;3902;49.474;8.616;2023-12-14T13:14:51;10.30;99.90
7720;DHT22;3902;49.474;8.616;2023-12-14T13:17:17;10.30;99.90
7720;DHT22;3902;49.474;8.616;2023-12-14T13:19:43;10.30;99.90
7720;DHT22;3902;49.474;8.616;2023-12-14T13:22:09;10.40;99.90
7720;DHT22;3902;49.474;8.616;2023-12-14T13:24:37;10.40;99.90
7720;DHT22;3902;49.474;8.616;2023-12-14T13:27:03;10.50;99.90
7720;DHT22;3902;49.474;8.616;2023-12-14T13:29:29;10.50;99.90
7720;DHT22;3902;49.474;8.616;2023-12-14T13:31:56;10.50;99.90
7720;DHT22;3902;49.474;8.616;2023-12-14T13:34:21;10.50;99.90
7720;DHT22;3902;49.474;8.616;2023-12-14T13:36:47;10.40;99.90
7720;DHT22;3902;49.474;8.616;2023-12-14T13:39:13;10.50;99.90
7720;DHT22;3902;49.474;8.616;2023-12-14T13:41:38;10.40;99.90
7720;DHT22;3902;49.474;8.616;2023-12-14T13:44:04;10.40;99.90
7720;DHT22;3902;49.474;8.616;2023-12-14T13:46:30;10.50;99.90
7720;DHT22;3902;49.474;8.616;2023-12-14T13:48:55;10.50;99.90
7720;DHT22;3902;49.474;8.616;2023-12-14T13:51:21;10.50;99.90
7720;DHT22;3902;49.474;8.616;2023-12-14T13:53:46;10.50;99.90
7720;DHT22;3902;49.474;8.616;2023-12-14T13:56:12;10.60;99.90
7720;DHT22;3902;49.474;8.616;2023-12-14T13:58:37;10.60;99.90
7720;DHT22;3902;49.474;8.616;2023-12-14T14:01:05;10.50;99.90
7720;DHT22;3902;49.474;8.616;2023-12-14T14:03:33;10.50;99.90
7720;DHT22;3902;49.474;8.616;2023-12-14T14:05:58;10.60;99.90
7720;DHT22;3902;49.474;8.616;2023-12-14T14:08:24;10.60;99.90
7720;DHT22;3902;49.474;8.616;2023-12-14T14:10:50;10.60;99.90
7720;DHT22;3902;49.474;8.616;2023-12-14T14:13:15;10.50;99.90
7720;DHT22;3902;49.474;8.616;2023-12-14T14:15:41;10.50;99.90
7720;DHT22;3902;49.474;8.616;2023-12-14T14:18:06;10.50;99.90
7720;DHT22;3902;49.474;8.616;2023-12-14T14:20:32;10.50;99.90
7720;DHT22;3902;49.474;8.616;2023-12-14T14:22:57;10.40;99.90
7720;DHT22;3902;49.474;8.616;2023-12-14T14:25:25;10.40;99.90
7720;DHT22;3902;49.474;8.616;2023-12-14T14:27:50;10.40;99.90
7720;DHT22;3902;49.474;8.616;2023-12-14T14:30:16;10.30;99.90
7720;DHT22;3902;49.474;8.616;2023-12-14T14:32:42;10.30;99.90
7720;DHT22;3902;49.474;8.616;2023-12-14T14:35:08;10.30;99.90
7720;DHT22;3902;49.474;8.616;2023-12-14T14:37:33;10.10;99.90
7720;DHT22;3902;49.474;8.616;2023-12-14T14:40:00;10.20;99.90
7720;DHT22;3902;49.474;8.616;2023-12-14T14:42:25;10.20;99.90
7720;DHT22;3902;49.474;8.616;2023-12-14T14:44:51;10.10;99.90
7720;DHT22;3902;49.474;8.616;2023-12-14T14:47:16;10.10;99.90
7720;DHT22;3902;49.474;8.616;2023-12-14T14:49:43;10.10;99.90
7720;DHT22;3902;49.474;8.616;2023-12-14T14:52:09;10.10;99.90
7720;DHT22;3902;49.474;8.616;2023-12-14T14:54:34;10.00;99.90
7720;DHT22;3902;49.474;8.616;2023-12-14T14:57:00;10.10;99.90
7720;DHT22;3902;49.474;8.616;2023-12-14T14:59:26;10.00;99.90
7720;DHT22;3902;49.474;8.616;2023-12-14T15:01:52;10.00;99.90
7720;DHT22;3902;49.474;8.616;2023-12-14T15:04:17;10.00;99.90
7720;DHT22;3902;49.474;8.616;2023-12-14T15:06:43;10.00;99.90
7720;DHT22;3902;49.474;8.616;2023-12-14T15:09:09;10.00;99.90
7720;DHT22;3902;49.474;8.616;2023-12-14T15:11:34;9.90;99.90
7720;DHT22;3902;49.474;8.616;2023-12-14T15:14:00;10.00;99.90
7720;DHT22;3902;49.474;8.616;2023-12-14T15:16:25;10.00;99.90
7720;DHT22;3902;49.474;8.616;2023-12-14T15:18:52;9.90;99.90
7720;DHT22;3902;49.474;8.616;2023-12-14T15:21:17;9.90;99.90
7720;DHT22;3902;49.474;8.616;2023-12-14T15:23:43;9.90;99.90
7720;DHT22;3902;49.474;8.616;2023-12-14T15:26:12;9.90;99.90
7720;DHT22;3902;49.474;8.616;2023-12-14T15:28:37;9.90;99.90
7720;DHT22;3902;49.474;8.616;2023-12-14T15:31:03;9.90;99.90
7720;DHT22;3902;49.474;8.616;2023-12-14T15:33:29;9.90;99.90
7720;DHT22;3902;49.474;8.616;2023-12-14T15:35:54;9.90;99.90
7720;DHT22;3902;49.474;8.616;2023-12-14T15:38:20;9.90;99.90
7720;DHT22;3902;49.474;8.616;2023-12-14T15:40:45;9.90;99.90
7720;DHT22;3902;49.474;8.616;2023-12-14T15:43:11;9.80;99.90
7720;DHT22;3902;49.474;8.616;2023-12-14T15:45:37;9.80;99.90
7720;DHT22;3902;49.474;8.616;2023-12-14T15:48:02;9.80;99.90
7720;DHT22;3902;49.474;8.616;2023-12-14T15:50:28;9.80;99.90
7720;DHT22;3902;49.474;8.616;2023-12-14T15:52:54;9.80;99.90
7720;DHT22;3902;49.474;8.616;2023-12-14T15:55:20;9.80;99.90
7720;DHT22;3902;49.474;8.616;2023-12-14T15:57:48;9.70;99.90
7720;DHT22;3902;49.474;8.616;2023-12-14T16:00:14;9.70;99.90
7720;DHT22;3902;49.474;8.616;2023-12-14T16:02:43;9.70;99.90
7720;DHT22;3902;49.474;8.616;2023-12-14T16:05:08;9.70;99.90
7720;DHT22;3902;49.474;8.616;2023-12-14T16:07:35;9.70;99.90
7720;DHT22;3902;49.474;8.616;2023-12-14T16:10:00;9.70;99.90